Etusivu
METAR-TAF:

METAR-TAF

Lentoasemat :

Tucson, Arizona, Yhdysvallat

Leveyspiiri: 32-24-34N, Pituuspiiri: 111-13-06W, korkeus merenpinnasta: 619 m

Tämänhetkinen sää

Tämä raportti tehtiin 17 minuuttia sitten, kello 10.55 UTC
Tuuli 4 kn idästä/kaakosta
Lämpötila 19°C
Kosteus 22%
Ilmanpaine 1011 hPa
Näkyvyys: 16.1 km
selkeää

METAR: KAVQ 201055Z AUTO 11004KT 10SM CLR 19/M03 A2985 RMK AO2 T01931031

Aika: 04:12 (11:12 UTC)


TAF: puuttuu

Säähavainnot ja -ennusteet yli 4000 lentoasemalta (METAR- ja TAF-raportit).

Käytössä olevat sääasemat on merkitty karttaan keltaisilla ja punaisilla pisteillä.

Aseta hiiri pisteen päälle nähdäksesi sääaseman nimen.

Klikkaa sitten nähdäksesi säähavainnot ja -ennusteet.

Kartan vaihtaminen: klikkaa mustalla rastilla varustettuja vihreitä pisteitä, niin voit zoomata sisään; viivalla varustettua vihreää pistettä, niin voit zoomata ulos tai vihreitä nuolia, niin pääset viereisille kartoille.


METAR-TAF: